createdAt,value
2018-07-15T00:00:11.266Z,66.44
2018-07-15T00:01:11.258Z,66.78
2018-07-15T00:02:11.242Z,66.58
2018-07-15T00:03:11.311Z,66.58
2018-07-15T00:04:11.230Z,66.67
2018-07-15T00:05:11.238Z,66.67
2018-07-15T00:06:11.199Z,66.58
2018-07-15T00:07:11.188Z,66.38
2018-07-15T00:08:11.217Z,66.58
2018-07-15T00:09:11.170Z,66.47
2018-07-15T00:10:11.159Z,66.67
2018-07-15T00:11:11.145Z,66.88
2018-07-15T00:12:11.133Z,66.38
2018-07-15T00:13:11.166Z,66.58
2018-07-15T00:14:11.116Z,66.41
2018-07-15T00:15:11.108Z,66.71
2018-07-15T00:16:11.093Z,66.71
2018-07-15T00:17:11.083Z,66.81
2018-07-15T00:18:11.091Z,66.81
2018-07-15T00:19:11.062Z,67.11
2018-07-15T00:20:11.058Z,66.81
2018-07-15T00:21:11.051Z,66.91
2018-07-15T00:22:11.025Z,66.71
2018-07-15T00:23:11.062Z,67.01
2018-07-15T00:24:11.004Z,67.01
2018-07-15T00:25:11.015Z,67.01
2018-07-15T00:26:10.991Z,67.05
2018-07-15T00:27:10.976Z,67.32
2018-07-15T00:28:11.013Z,67.32
2018-07-15T00:29:10.951Z,67.22
2018-07-15T00:30:10.975Z,66.94
2018-07-15T00:31:10.939Z,67.05
2018-07-15T00:32:10.915Z,67.45
2018-07-15T00:33:10.904Z,67.25
2018-07-15T00:34:10.940Z,67.35
2018-07-15T00:35:10.890Z,67.25
2018-07-15T00:36:10.876Z,67.05
2018-07-15T00:37:10.864Z,67.35
2018-07-15T00:38:10.850Z,67.38
2018-07-15T00:39:10.898Z,67.38
2018-07-15T00:40:10.846Z,67.48
2018-07-15T00:41:10.818Z,67.79
2018-07-15T00:42:10.805Z,67.79
2018-07-15T00:43:10.805Z,67.89
2018-07-15T00:44:10.831Z,67.79
2018-07-15T00:45:10.780Z,67.79
2018-07-15T00:46:10.765Z,67.68
2018-07-15T00:47:10.761Z,67.99
2018-07-15T00:48:10.761Z,67.68
2018-07-15T00:49:10.774Z,67.89
2018-07-15T00:50:10.717Z,68.09
2018-07-15T00:51:10.725Z,67.68
2018-07-15T00:52:10.694Z,67.72
2018-07-15T00:53:10.687Z,67.51
2018-07-15T00:54:10.699Z,67.72
2018-07-15T00:55:10.710Z,67.61
2018-07-15T00:56:10.653Z,67.61
2018-07-15T00:57:10.661Z,68.02
2018-07-15T00:58:10.635Z,68.32
2018-07-15T00:59:10.617Z,68.23
2018-07-15T01:00:10.632Z,68.52
2018-07-15T01:01:10.599Z,68.23
2018-07-15T01:02:10.586Z,68.12
2018-07-15T01:03:10.600Z,68.23
2018-07-15T01:04:10.589Z,68.12
2018-07-15T01:05:10.581Z,68.12
2018-07-15T01:06:10.544Z,68.02
2018-07-15T01:07:10.537Z,68.02
2018-07-15T01:08:10.519Z,68.46
2018-07-15T01:09:10.513Z,68.35
2018-07-15T01:10:10.535Z,68.56
2018-07-15T01:11:10.491Z,68.46
2018-07-15T01:12:10.474Z,68.56
2018-07-15T01:13:10.462Z,68.46
2018-07-15T01:14:10.454Z,68.76
2018-07-15T01:15:10.471Z,68.76
2018-07-15T01:16:10.431Z,68.87
2018-07-15T01:17:10.422Z,68.96
2018-07-15T01:18:10.435Z,68.76
2018-07-15T01:19:10.399Z,69.00
2018-07-15T01:20:10.443Z,68.79
2018-07-15T01:21:10.422Z,68.59
2018-07-15T01:22:10.379Z,68.46
2018-07-15T01:23:10.364Z,68.66
2018-07-15T01:24:10.349Z,69.00
2018-07-15T01:25:10.370Z,69.37
2018-07-15T01:26:10.322Z,68.90
2018-07-15T01:27:10.316Z,68.79
2018-07-15T01:28:10.303Z,68.49
2018-07-15T01:29:10.291Z,68.49
2018-07-15T01:30:10.279Z,68.39
2018-07-15T01:31:10.323Z,69.00
2018-07-15T01:32:10.254Z,69.00
2018-07-15T01:33:10.282Z,68.90
2018-07-15T01:34:10.250Z,69.20
2018-07-15T01:35:10.236Z,69.40
2018-07-15T01:36:10.261Z,69.00
2018-07-15T01:37:10.197Z,69.30
2018-07-15T01:38:10.199Z,69.10
2018-07-15T01:39:10.185Z,69.00
2018-07-15T01:40:10.170Z,69.10
2018-07-15T01:41:10.206Z,69.30
2018-07-15T01:42:10.149Z,68.70
2018-07-15T01:43:10.139Z,70.04
2018-07-15T01:44:10.126Z,69.84
2018-07-15T01:45:10.118Z,69.74
2018-07-15T01:46:10.142Z,70.15
2018-07-15T01:47:10.113Z,70.55
2018-07-15T01:48:10.092Z,70.25
2018-07-15T01:49:10.084Z,70.55
2018-07-15T01:50:10.053Z,69.60
2018-07-15T01:51:10.073Z,69.30
2018-07-15T01:52:10.036Z,69.03
2018-07-15T01:53:10.021Z,69.00
2018-07-15T01:54:10.016Z,68.93
2018-07-15T01:55:10.005Z,69.23
2018-07-15T01:56:10.010Z,68.93
2018-07-15T01:57:09.982Z,68.93
2018-07-15T01:58:09.971Z,68.73
2018-07-15T01:59:09.962Z,68.90
2018-07-15T02:00:09.971Z,68.90
2018-07-15T02:01:09.989Z,68.83
2018-07-15T02:02:09.928Z,69.13
2018-07-15T02:03:09.908Z,69.43
2018-07-15T02:04:09.901Z,69.13
2018-07-15T02:05:09.908Z,69.34
2018-07-15T02:06:09.924Z,69.54
2018-07-15T02:07:09.895Z,69.54
2018-07-15T02:08:09.858Z,69.54
2018-07-15T02:09:09.869Z,69.37
2018-07-15T02:10:09.870Z,69.64
2018-07-15T02:11:09.822Z,69.23
2018-07-15T02:12:09.842Z,69.43
2018-07-15T02:13:09.800Z,69.43
2018-07-15T02:14:09.817Z,69.95
2018-07-15T02:15:09.775Z,69.87
2018-07-15T02:16:09.792Z,69.57
2018-07-15T02:17:09.782Z,70.08
2018-07-15T02:18:09.743Z,69.98
2018-07-15T02:19:09.751Z,69.98
2018-07-15T02:20:09.727Z,69.98
2018-07-15T02:21:09.709Z,69.78
2018-07-15T02:22:09.722Z,70.38
2018-07-15T02:23:09.687Z,69.87
2018-07-15T02:24:09.679Z,70.31
2018-07-15T02:25:09.677Z,70.08
2018-07-15T02:26:09.677Z,70.59
2018-07-15T02:27:09.693Z,70.59
2018-07-15T02:28:09.634Z,71.30
2018-07-15T02:29:09.624Z,70.08
2018-07-15T02:30:09.626Z,70.99
2018-07-15T02:31:09.604Z,70.59
2018-07-15T02:32:09.627Z,70.48
2018-07-15T02:33:09.581Z,70.18
2018-07-15T02:34:09.578Z,70.08
2018-07-15T02:35:09.554Z,69.87
2018-07-15T02:36:09.547Z,70.11
2018-07-15T02:37:09.536Z,70.08
2018-07-15T02:38:09.552Z,69.30
2018-07-15T02:39:09.512Z,69.57
2018-07-15T02:40:09.507Z,69.50
2018-07-15T02:41:09.492Z,69.20
2018-07-15T02:42:09.478Z,69.40
2018-07-15T02:43:09.496Z,69.70
2018-07-15T02:44:09.455Z,69.98
2018-07-15T02:45:09.446Z,69.78
2018-07-15T02:46:09.430Z,69.60
2018-07-15T02:47:09.434Z,70.11
2018-07-15T02:48:09.442Z,70.89
2018-07-15T02:49:09.411Z,70.62
2018-07-15T02:50:09.412Z,70.62
2018-07-15T02:51:09.392Z,70.31
2018-07-15T02:52:09.369Z,70.21
2018-07-15T02:53:09.387Z,70.01
2018-07-15T02:54:09.343Z,70.11
2018-07-15T02:55:09.332Z,70.82
2018-07-15T02:56:09.322Z,70.82
2018-07-15T02:57:09.326Z,70.42
2018-07-15T02:58:09.328Z,70.82
2018-07-15T02:59:09.317Z,70.72
2018-07-15T03:00:09.279Z,70.52
2018-07-15T03:01:09.281Z,71.94
2018-07-15T03:02:09.254Z,72.14
2018-07-15T03:03:09.270Z,72.65
2018-07-15T03:04:09.256Z,72.99
2018-07-15T03:05:09.223Z,74.01
2018-07-15T03:06:09.219Z,73.19
2018-07-15T03:07:09.200Z,72.99
2018-07-15T03:08:09.221Z,72.58
2018-07-15T03:09:09.193Z,72.69
2018-07-15T03:10:09.175Z,72.38
2018-07-15T03:11:09.153Z,72.48
2018-07-15T03:12:09.144Z,72.48
2018-07-15T03:13:09.134Z,72.55
2018-07-15T03:14:09.146Z,72.58
2018-07-15T03:15:09.123Z,73.50
2018-07-15T03:16:09.101Z,73.60
2018-07-15T03:17:09.114Z,73.70
2018-07-15T03:18:09.082Z,73.80
2018-07-15T03:19:09.096Z,73.30
2018-07-15T03:20:09.056Z,73.39
2018-07-15T03:21:09.046Z,73.50
2018-07-15T03:22:09.036Z,74.21
2018-07-15T03:23:09.048Z,74.11
2018-07-15T03:24:09.044Z,73.50
2018-07-15T03:25:08.999Z,74.41
2018-07-15T03:26:08.994Z,74.41
2018-07-15T03:27:08.977Z,75.23
2018-07-15T03:28:08.964Z,75.23
2018-07-15T03:29:08.998Z,75.84
2018-07-15T03:30:08.942Z,75.63
2018-07-15T03:31:08.934Z,75.33
2018-07-15T03:32:08.919Z,75.33
2018-07-15T03:33:08.910Z,75.53
2018-07-15T03:34:09.001Z,75.33
2018-07-15T03:35:08.929Z,75.33
2018-07-15T03:36:08.889Z,74.88
2018-07-15T03:37:08.870Z,75.70
2018-07-15T03:38:08.870Z,75.29
2018-07-15T03:39:08.855Z,75.29
2018-07-15T03:40:08.874Z,75.49
2018-07-15T03:41:08.824Z,75.19
2018-07-15T03:42:08.815Z,75.29
2018-07-15T03:43:08.820Z,75.29
2018-07-15T03:44:08.791Z,75.09
2018-07-15T03:45:08.852Z,75.29
2018-07-15T03:46:08.777Z,75.09
2018-07-15T03:47:08.758Z,75.09
2018-07-15T03:48:08.747Z,75.80
2018-07-15T03:49:08.735Z,75.94
2018-07-15T03:50:08.726Z,75.70
2018-07-15T03:51:08.791Z,75.29
2018-07-15T03:52:08.703Z,75.09
2018-07-15T03:53:08.694Z,74.99
2018-07-15T03:54:08.699Z,74.75
2018-07-15T03:55:08.704Z,74.34
2018-07-15T03:56:08.680Z,74.41
2018-07-15T03:57:08.642Z,74.75
2018-07-15T03:58:08.654Z,74.95
2018-07-15T03:59:08.627Z,74.65
2018-07-15T04:00:08.612Z,75.32
2018-07-15T04:01:08.633Z,75.05
2018-07-15T04:02:08.588Z,75.12
2018-07-15T04:03:08.599Z,75.32
2018-07-15T04:04:08.570Z,75.26
2018-07-15T04:05:08.569Z,75.43
2018-07-15T04:06:08.571Z,75.26
2018-07-15T04:07:08.537Z,75.05
2018-07-15T04:08:08.526Z,74.95
2018-07-15T04:09:08.533Z,75.05
2018-07-15T04:10:08.511Z,74.85
2018-07-15T04:11:08.533Z,74.55
2018-07-15T04:12:08.492Z,74.62
2018-07-15T04:13:08.492Z,75.43
2018-07-15T04:14:08.457Z,75.36
2018-07-15T04:15:08.458Z,75.16
2018-07-15T04:16:08.443Z,75.05
2018-07-15T04:17:08.444Z,75.22
2018-07-15T04:18:08.416Z,75.73
2018-07-15T04:19:08.415Z,75.76
2018-07-15T04:20:08.407Z,75.46
2018-07-15T04:21:08.380Z,75.56
2018-07-15T04:22:08.399Z,75.16
2018-07-15T04:23:08.362Z,75.26
2018-07-15T04:24:08.361Z,75.22
2018-07-15T04:25:08.335Z,75.43
2018-07-15T04:26:08.323Z,75.73
2018-07-15T04:27:08.339Z,75.22
2018-07-15T04:28:08.387Z,75.12
2018-07-15T04:29:08.289Z,75.22
2018-07-15T04:30:08.280Z,75.19
2018-07-15T04:31:08.267Z,74.78
2018-07-15T04:32:08.277Z,74.78
2018-07-15T04:33:08.244Z,75.19
2018-07-15T04:34:08.238Z,75.15
2018-07-15T04:35:08.227Z,75.09
2018-07-15T04:36:08.235Z,75.90
2018-07-15T04:37:08.258Z,75.15
2018-07-15T04:38:08.190Z,75.19
2018-07-15T04:39:08.189Z,75.09
2018-07-15T04:40:08.168Z,75.09
2018-07-15T04:41:08.157Z,75.39
2018-07-15T04:42:08.147Z,75.35
2018-07-15T04:43:08.163Z,74.74
2018-07-15T04:44:08.144Z,74.65
2018-07-15T04:45:08.119Z,74.54
2018-07-15T04:46:08.101Z,74.61
2018-07-15T04:47:08.091Z,74.61
2018-07-15T04:48:08.106Z,75.32
2018-07-15T04:49:08.073Z,75.32
2018-07-15T04:50:08.058Z,74.57
2018-07-15T04:51:08.046Z,74.37
2018-07-15T04:52:08.041Z,75.18
2018-07-15T04:53:08.096Z,74.88
2018-07-15T04:54:08.021Z,75.45
2018-07-15T04:55:08.017Z,74.95
2018-07-15T04:56:08.001Z,73.80
2018-07-15T04:57:07.981Z,73.39
2018-07-15T04:58:07.975Z,73.80
2018-07-15T04:59:07.987Z,73.96
2018-07-15T05:00:07.956Z,74.16
2018-07-15T05:01:07.939Z,73.46
2018-07-15T05:02:08.032Z,73.36
2018-07-15T05:03:07.916Z,73.25
2018-07-15T05:04:07.933Z,73.05
2018-07-15T05:05:07.911Z,72.92
2018-07-15T05:06:07.889Z,73.19
2018-07-15T05:07:07.875Z,72.99
2018-07-15T05:08:07.864Z,72.58
2018-07-15T05:09:07.876Z,71.94
2018-07-15T05:10:07.839Z,72.04
2018-07-15T05:11:07.850Z,72.04
2018-07-15T05:12:07.817Z,71.44
2018-07-15T05:13:07.814Z,71.40
2018-07-15T05:14:07.858Z,71.30
2018-07-15T05:15:07.789Z,71.47
2018-07-15T05:16:07.772Z,71.03
2018-07-15T05:17:07.791Z,71.13
2018-07-15T05:18:07.769Z,70.83
2018-07-15T05:19:07.739Z,70.59
2018-07-15T05:20:07.775Z,69.99
2018-07-15T05:21:07.717Z,70.06
2018-07-15T05:22:07.704Z,69.52
2018-07-15T05:23:07.696Z,67.68
2018-07-15T05:24:07.685Z,66.23
2018-07-15T05:25:07.714Z,66.23
2018-07-15T05:26:07.665Z,66.10
2018-07-15T05:27:07.652Z,65.36
2018-07-15T05:28:07.641Z,65.16
2018-07-15T05:29:07.634Z,64.56
2018-07-15T05:30:07.644Z,64.33
2018-07-15T05:31:07.612Z,64.23
2018-07-15T05:32:07.608Z,63.56
2018-07-15T05:33:07.585Z,62.36
2018-07-15T05:34:07.577Z,61.70
2018-07-15T05:35:07.618Z,60.97
2018-07-15T05:36:07.569Z,60.24
2018-07-15T05:37:07.542Z,59.78
2018-07-15T05:38:07.537Z,58.87
2018-07-15T05:39:07.519Z,58.42
2018-07-15T05:40:07.549Z,56.79
2018-07-15T05:41:07.495Z,55.94
2018-07-15T05:42:07.487Z,52.69
2018-07-15T05:43:07.488Z,52.07
2018-07-15T05:44:07.467Z,51.03
2018-07-15T05:45:07.455Z,50.48
2018-07-15T05:46:07.468Z,49.76
2018-07-15T05:47:07.435Z,48.44
2018-07-15T05:48:07.421Z,48.22
2018-07-15T05:49:07.413Z,47.10
2018-07-15T05:50:07.410Z,45.86
2018-07-15T05:51:07.437Z,45.54
2018-07-15T05:52:07.381Z,44.06
2018-07-15T05:53:07.379Z,43.74
2018-07-15T05:54:07.355Z,43.52
2018-07-15T05:55:07.344Z,43.91
2018-07-15T05:56:07.381Z,43.82
2018-07-15T05:57:07.337Z,44.29
2018-07-15T05:58:07.455Z,43.49
2018-07-15T05:59:07.302Z,42.21
2018-07-15T06:00:07.290Z,42.90
2018-07-15T06:01:07.282Z,43.12
2018-07-15T06:02:07.292Z,43.64
2018-07-15T06:03:07.259Z,43.64
2018-07-15T06:04:07.248Z,44.95
2018-07-15T06:05:07.239Z,44.18
2018-07-15T06:06:07.224Z,44.20
2018-07-15T06:07:07.243Z,44.12
2018-07-15T06:08:07.219Z,44.71
2018-07-15T06:09:07.192Z,45.53
2018-07-15T06:10:07.187Z,47.05
2018-07-15T06:11:07.173Z,45.95
2018-07-15T06:12:07.210Z,47.07
2018-07-15T06:13:07.148Z,46.67
2018-07-15T06:14:07.137Z,46.17
2018-07-15T06:15:07.126Z,47.49
2018-07-15T06:16:07.114Z,46.99
2018-07-15T06:17:07.126Z,46.69
2018-07-15T06:18:07.194Z,46.69
2018-07-15T06:19:07.091Z,47.51
2018-07-15T06:20:07.077Z,47.31
2018-07-15T06:21:07.061Z,46.91
2018-07-15T06:22:07.053Z,47.63
2018-07-15T06:23:07.087Z,47.53
2018-07-15T06:24:07.028Z,46.91
2018-07-15T06:25:07.018Z,45.92
2018-07-15T06:26:07.012Z,46.64
2018-07-15T06:27:07.001Z,46.42
2018-07-15T06:28:07.014Z,45.50
2018-07-15T06:29:06.972Z,43.94
2018-07-15T06:30:06.964Z,42.61
2018-07-15T06:31:06.992Z,40.64
2018-07-15T06:32:06.943Z,41.00
2018-07-15T06:33:06.951Z,39.56
2018-07-15T06:34:06.917Z,37.62
2018-07-15T06:35:06.918Z,36.21
2018-07-15T06:36:06.902Z,35.50
2018-07-15T06:37:06.883Z,35.48
2018-07-15T06:38:06.893Z,34.00
2018-07-15T06:39:06.863Z,33.82
2018-07-15T06:40:06.855Z,36.30
2018-07-15T06:41:06.846Z,36.21
2018-07-15T06:42:06.829Z,36.11
2018-07-15T06:43:06.846Z,36.22
2018-07-15T06:44:06.808Z,36.14
2018-07-15T06:45:06.797Z,36.14
2018-07-15T06:46:06.787Z,36.14
2018-07-15T06:47:06.781Z,36.55
2018-07-15T06:48:06.764Z,37.45
2018-07-15T06:49:06.792Z,36.75
2018-07-15T06:50:06.751Z,36.24
2018-07-15T06:51:06.747Z,37.03
2018-07-15T06:52:06.722Z,36.22
2018-07-15T06:53:06.720Z,35.81
2018-07-15T06:54:06.815Z,35.53
2018-07-15T06:55:06.689Z,36.75
2018-07-15T06:56:06.692Z,36.88
2018-07-15T06:57:06.665Z,37.62
2018-07-15T06:58:06.656Z,37.93
2018-07-15T06:59:06.678Z,40.55
2018-07-15T07:00:06.642Z,40.58
2018-07-15T07:01:06.628Z,40.60
2018-07-15T07:02:06.615Z,41.22
2018-07-15T07:03:06.610Z,41.95
2018-07-15T07:04:06.632Z,42.27
2018-07-15T07:05:06.581Z,44.20
2018-07-15T07:06:06.569Z,43.90
2018-07-15T07:07:06.632Z,44.50
2018-07-15T07:08:06.548Z,45.52
2018-07-15T07:09:06.575Z,44.82
2018-07-15T07:10:06.546Z,45.34
2018-07-15T07:11:06.518Z,45.84
2018-07-15T07:12:06.506Z,46.44
2018-07-15T07:13:06.502Z,45.24
2018-07-15T07:14:06.547Z,45.64
2018-07-15T07:15:06.501Z,45.86
2018-07-15T07:16:06.463Z,44.96
2018-07-15T07:17:06.456Z,45.17
2018-07-15T07:18:06.438Z,45.36
2018-07-15T07:19:06.435Z,45.52
2018-07-15T07:20:06.452Z,44.01
2018-07-15T07:21:06.429Z,44.20
2018-07-15T07:22:06.411Z,44.02
2018-07-15T07:23:06.383Z,44.62
2018-07-15T07:24:06.372Z,45.64
2018-07-15T07:25:06.384Z,45.64
2018-07-15T07:26:06.352Z,45.47
2018-07-15T07:27:06.350Z,44.67
2018-07-15T07:28:06.330Z,45.59
2018-07-15T07:29:06.317Z,46.58
2018-07-15T07:30:06.337Z,47.38
2018-07-15T07:31:06.296Z,46.61
2018-07-15T07:32:06.287Z,46.98
2018-07-15T07:33:06.274Z,45.89
2018-07-15T07:34:06.271Z,45.89
2018-07-15T07:35:06.296Z,45.17
2018-07-15T07:36:06.246Z,45.78
2018-07-15T07:37:06.242Z,45.90
2018-07-15T07:38:06.222Z,45.90
2018-07-15T07:39:06.215Z,47.40
2018-07-15T07:40:06.209Z,46.88
2018-07-15T07:41:06.223Z,46.68
2018-07-15T07:42:06.176Z,45.56
2018-07-15T07:43:06.170Z,45.54
2018-07-15T07:44:06.157Z,44.74
2018-07-15T07:45:06.145Z,44.76
2018-07-15T07:46:06.195Z,44.76
2018-07-15T07:47:06.122Z,45.17
2018-07-15T07:48:06.133Z,45.56
2018-07-15T07:49:06.115Z,46.26
2018-07-15T07:50:06.115Z,45.36
2018-07-15T07:51:06.128Z,45.39
2018-07-15T07:52:06.079Z,45.98
2018-07-15T07:53:06.059Z,46.01
2018-07-15T07:54:06.070Z,47.60
2018-07-15T07:55:06.041Z,47.53
2018-07-15T07:56:06.031Z,47.13
2018-07-15T07:57:06.048Z,47.95
2018-07-15T07:58:06.006Z,48.65
2018-07-15T07:59:05.995Z,48.25
2018-07-15T08:00:05.985Z,48.65
2018-07-15T08:01:05.980Z,48.75
2018-07-15T08:02:05.988Z,48.32
2018-07-15T08:03:05.962Z,47.20
2018-07-15T08:04:05.940Z,47.30
2018-07-15T08:05:05.944Z,47.00
2018-07-15T08:06:05.925Z,47.60
2018-07-15T08:07:05.940Z,45.89
2018-07-15T08:08:05.905Z,46.08
2018-07-15T08:09:05.883Z,45.59
2018-07-15T08:10:05.884Z,45.98
2018-07-15T08:11:05.865Z,46.58
2018-07-15T08:12:05.885Z,45.78
2018-07-15T08:13:05.856Z,46.78
2018-07-15T08:14:05.829Z,45.68
2018-07-15T08:15:05.869Z,46.58
2018-07-15T08:16:05.807Z,45.34
2018-07-15T08:17:05.821Z,45.50
2018-07-15T08:18:05.804Z,44.60
2018-07-15T08:19:05.782Z,43.94
2018-07-15T08:20:05.771Z,41.93
2018-07-15T08:21:05.764Z,41.52
2018-07-15T08:22:05.781Z,42.41
2018-07-15T08:23:05.742Z,42.21
2018-07-15T08:24:05.721Z,41.79
2018-07-15T08:25:05.710Z,41.89
2018-07-15T08:26:05.699Z,41.09
2018-07-15T08:27:05.712Z,41.77
2018-07-15T08:28:05.697Z,41.08
2018-07-15T08:29:05.683Z,40.48
2018-07-15T08:30:05.655Z,41.38
2018-07-15T08:31:05.645Z,41.09
2018-07-15T08:32:05.662Z,41.31
2018-07-15T08:33:05.630Z,41.82
2018-07-15T08:34:05.617Z,42.13
2018-07-15T08:35:05.623Z,43.13
2018-07-15T08:36:05.593Z,43.24
2018-07-15T08:37:05.581Z,43.54
2018-07-15T08:38:05.598Z,43.76
2018-07-15T08:39:05.555Z,43.66
2018-07-15T08:40:05.587Z,44.06
2018-07-15T08:41:05.535Z,43.86
2018-07-15T08:42:05.529Z,44.06
2018-07-15T08:43:05.577Z,43.57
2018-07-15T08:44:05.509Z,44.48
2018-07-15T08:45:05.492Z,43.59
2018-07-15T08:46:05.540Z,43.90
2018-07-15T08:47:05.532Z,44.01
2018-07-15T08:48:05.459Z,44.31
2018-07-15T08:49:05.470Z,44.92
2018-07-15T08:50:05.444Z,45.14
2018-07-15T08:51:05.474Z,44.45
2018-07-15T08:52:05.475Z,45.24
2018-07-15T08:53:05.408Z,45.44
2018-07-15T08:54:05.415Z,45.84
2018-07-15T08:55:05.380Z,45.42
2018-07-15T08:56:05.434Z,44.65
2018-07-15T08:57:05.391Z,44.42
2018-07-15T08:58:05.354Z,45.12
2018-07-15T08:59:05.823Z,45.34
2018-07-15T09:00:05.355Z,45.32
2018-07-15T09:01:05.358Z,44.82
2018-07-15T09:02:05.315Z,44.01
2018-07-15T09:03:05.291Z,43.30
2018-07-15T09:04:05.308Z,43.90
2018-07-15T09:05:05.278Z,43.49
2018-07-15T09:06:05.364Z,45.30
2018-07-15T09:07:05.310Z,43.68
2018-07-15T09:08:05.342Z,44.01
2018-07-15T09:09:05.306Z,43.80
2018-07-15T09:10:05.230Z,44.10
2018-07-15T09:11:05.225Z,44.40
2018-07-15T09:12:05.228Z,43.52
2018-07-15T09:13:05.184Z,43.93
2018-07-15T09:14:05.232Z,45.54
2018-07-15T09:15:05.200Z,45.12
2018-07-15T09:16:05.193Z,45.14
2018-07-15T09:17:05.182Z,44.42
2018-07-15T09:18:05.129Z,45.42
2018-07-15T09:19:05.212Z,44.84
2018-07-15T09:20:05.143Z,44.23
2018-07-15T09:21:05.154Z,43.33
2018-07-15T09:22:05.134Z,43.51
2018-07-15T09:23:05.107Z,43.82
2018-07-15T09:24:05.165Z,43.82
2018-07-15T09:25:05.104Z,45.00
2018-07-15T09:26:05.071Z,44.60
2018-07-15T09:27:05.035Z,45.30
2018-07-15T09:28:05.023Z,44.01
2018-07-15T09:29:05.008Z,43.71
2018-07-15T09:30:05.025Z,43.51
2018-07-15T09:31:05.049Z,43.41
2018-07-15T09:32:04.982Z,43.80
2018-07-15T09:33:05.037Z,43.51
2018-07-15T09:34:04.953Z,44.12
2018-07-15T09:35:05.022Z,43.01
2018-07-15T09:36:04.992Z,43.11
2018-07-15T09:37:04.970Z,43.21
2018-07-15T09:38:04.957Z,40.62
2018-07-15T09:39:04.896Z,41.00
2018-07-15T09:40:04.912Z,41.50
2018-07-15T09:41:04.876Z,43.19
2018-07-15T09:42:04.865Z,42.29
2018-07-15T09:43:04.879Z,42.59
2018-07-15T09:44:04.844Z,43.38
2018-07-15T09:45:04.869Z,43.19
2018-07-15T09:46:04.823Z,41.39
2018-07-15T09:47:04.810Z,42.59
2018-07-15T09:48:04.802Z,41.79
2018-07-15T09:49:04.800Z,41.69
2018-07-15T09:50:04.776Z,42.39
2018-07-15T09:51:04.793Z,43.19
2018-07-15T09:52:04.756Z,41.69
2018-07-15T09:53:04.748Z,40.58
2018-07-15T09:54:04.799Z,41.17
2018-07-15T09:55:04.723Z,39.69
2018-07-15T09:56:04.747Z,41.08
2018-07-15T09:57:04.701Z,41.67
2018-07-15T09:58:04.704Z,41.36
2018-07-15T09:59:04.681Z,41.04
2018-07-15T10:00:04.674Z,40.44
2018-07-15T10:01:04.687Z,41.44
2018-07-15T10:02:04.650Z,39.53
2018-07-15T10:03:04.643Z,39.92
2018-07-15T10:04:04.639Z,39.51
2018-07-15T10:05:04.624Z,39.90
2018-07-15T10:06:04.679Z,40.20
2018-07-15T10:07:04.594Z,37.90
2018-07-15T10:08:04.590Z,38.90
2018-07-15T10:09:04.570Z,38.18
2018-07-15T10:10:04.561Z,38.09
2018-07-15T10:11:04.582Z,37.96
2018-07-15T10:12:04.549Z,37.95
2018-07-15T10:13:04.537Z,38.03
2018-07-15T10:14:04.517Z,36.23
2018-07-15T10:15:04.518Z,36.59
2018-07-15T10:16:04.536Z,36.67
2018-07-15T10:17:04.486Z,36.55
2018-07-15T10:18:04.477Z,35.04
2018-07-15T10:19:04.658Z,35.69
2018-07-15T10:20:04.457Z,34.49
2018-07-15T10:21:04.451Z,33.39
2018-07-15T10:22:04.454Z,32.69
2018-07-15T10:23:04.429Z,32.08
2018-07-15T10:24:04.421Z,30.30
2018-07-15T10:25:04.401Z,30.38
2018-07-15T10:26:04.390Z,29.77
2018-07-15T10:27:04.406Z,30.07
2018-07-15T10:28:04.373Z,30.07
2018-07-15T10:29:04.359Z,29.57
2018-07-15T10:30:04.346Z,30.24
2018-07-15T10:31:04.338Z,29.53
2018-07-15T10:32:04.356Z,28.95
2018-07-15T10:33:04.383Z,29.22
2018-07-15T10:34:04.313Z,29.13
2018-07-15T10:35:04.298Z,29.90
2018-07-15T10:36:04.287Z,29.30
2018-07-15T10:37:04.297Z,29.20
2018-07-15T10:38:04.263Z,27.92
2018-07-15T10:39:04.305Z,28.31
2018-07-15T10:40:04.238Z,29.20
2018-07-15T10:41:04.233Z,29.30
2018-07-15T10:42:04.245Z,28.99
2018-07-15T10:43:04.213Z,29.58
2018-07-15T10:44:04.198Z,28.39
2018-07-15T10:45:04.196Z,27.21
2018-07-15T10:46:04.181Z,27.61
2018-07-15T10:47:04.166Z,28.09
2018-07-15T10:48:04.180Z,27.72
2018-07-15T10:49:04.141Z,28.22
2018-07-15T10:50:04.145Z,28.12
2018-07-15T10:51:04.124Z,29.00
2018-07-15T10:52:04.114Z,28.12
2018-07-15T10:53:04.161Z,27.91
2018-07-15T10:54:04.089Z,28.40
2018-07-15T10:55:04.078Z,27.91
2018-07-15T10:56:04.067Z,28.49
2018-07-15T10:57:04.057Z,28.19
2018-07-15T10:58:04.069Z,28.39
2018-07-15T10:59:04.044Z,28.01
2018-07-15T11:00:04.035Z,27.91
2018-07-15T11:01:04.047Z,27.91
2018-07-15T11:02:04.008Z,29.28
2018-07-15T11:03:04.014Z,28.11
2018-07-15T11:04:03.988Z,27.23
2018-07-15T11:05:03.994Z,27.72
2018-07-15T11:06:03.961Z,27.81
2018-07-15T11:07:03.952Z,27.83
2018-07-15T11:08:03.971Z,27.34
2018-07-15T11:09:03.932Z,27.45
2018-07-15T11:10:03.919Z,27.36
2018-07-15T11:11:03.907Z,28.15
2018-07-15T11:12:03.896Z,28.75
2018-07-15T11:13:03.888Z,29.06
2018-07-15T11:14:03.900Z,27.09
2018-07-15T11:15:03.904Z,27.88
2018-07-15T11:16:03.853Z,29.47
2018-07-15T11:17:03.846Z,27.70
2018-07-15T11:18:03.839Z,28.29
2018-07-15T11:19:03.870Z,28.97
2018-07-15T11:20:03.815Z,27.99
2018-07-15T11:21:03.806Z,28.97
2018-07-15T11:22:03.794Z,28.97
2018-07-15T11:23:03.794Z,29.27
2018-07-15T11:24:03.792Z,28.78
2018-07-15T11:25:03.767Z,28.17
2018-07-15T11:26:03.766Z,28.37
2018-07-15T11:27:03.743Z,28.57
2018-07-15T11:28:03.730Z,28.36
2018-07-15T11:29:03.751Z,27.97
2018-07-15T11:30:03.710Z,28.36
2018-07-15T11:31:03.761Z,27.95
2018-07-15T11:32:03.695Z,28.05
2018-07-15T11:33:03.679Z,28.64
2018-07-15T11:34:03.664Z,29.33
2018-07-15T11:35:03.685Z,28.13
2018-07-15T11:36:03.647Z,27.94
2018-07-15T11:37:03.637Z,27.66
2018-07-15T11:38:03.622Z,28.15
2018-07-15T11:39:03.680Z,28.43
2018-07-15T11:40:03.626Z,27.85
2018-07-15T11:41:03.587Z,27.87
2018-07-15T11:42:03.583Z,29.53
2018-07-15T11:43:03.568Z,29.16
2018-07-15T11:44:03.559Z,27.98
2018-07-15T11:45:03.570Z,28.29
2018-07-15T11:46:03.551Z,29.28
2018-07-15T11:47:03.524Z,29.48
2018-07-15T11:48:03.558Z,30.07
2018-07-15T11:49:03.501Z,29.97
2018-07-15T11:50:03.516Z,30.27
2018-07-15T11:51:03.485Z,30.95
2018-07-15T11:52:03.471Z,29.28
2018-07-15T11:53:03.466Z,29.97
2018-07-15T11:54:03.459Z,30.46
2018-07-15T11:55:03.442Z,29.38
2018-07-15T11:56:03.455Z,29.19
2018-07-15T11:57:03.416Z,29.97
2018-07-15T11:58:03.408Z,30.07
2018-07-15T11:59:03.403Z,29.09
2018-07-15T12:00:03.383Z,29.87
2018-07-15T12:01:03.413Z,30.08
2018-07-15T12:02:03.475Z,29.89
2018-07-15T12:03:03.348Z,29.59
2018-07-15T12:04:03.343Z,29.89
2018-07-15T12:05:03.333Z,30.28
2018-07-15T12:06:03.350Z,29.79
2018-07-15T12:07:03.313Z,29.99
2018-07-15T12:08:03.298Z,29.49
2018-07-15T12:09:03.285Z,29.39
2018-07-15T12:10:03.279Z,29.39
2018-07-15T12:11:03.736Z,29.39
2018-07-15T12:12:03.259Z,29.69
2018-07-15T12:13:03.251Z,29.69
2018-07-15T12:14:03.233Z,29.39
2018-07-15T12:15:03.230Z,29.20
2018-07-15T12:16:03.256Z,29.61
2018-07-15T12:17:03.200Z,29.71
2018-07-15T12:18:03.207Z,30.10
2018-07-15T12:19:03.180Z,29.21
2018-07-15T12:20:03.183Z,29.33
2018-07-15T12:21:03.158Z,29.92
2018-07-15T12:22:03.173Z,29.13
2018-07-15T12:23:03.138Z,29.92
2018-07-15T12:24:03.133Z,29.34
2018-07-15T12:25:03.120Z,30.62
2018-07-15T12:26:03.107Z,30.62
2018-07-15T12:27:03.122Z,30.03
2018-07-15T12:28:03.081Z,30.83
2018-07-15T12:29:03.079Z,31.13
2018-07-15T12:30:03.060Z,30.55
2018-07-15T12:31:03.050Z,29.94
2018-07-15T12:32:03.061Z,30.35
2018-07-15T12:33:03.031Z,30.65
2018-07-15T12:34:03.028Z,31.34
2018-07-15T12:35:03.011Z,30.45
2018-07-15T12:36:03.000Z,29.86
2018-07-15T12:37:03.014Z,30.35
2018-07-15T12:38:02.975Z,31.83
2018-07-15T12:39:02.964Z,29.96
2018-07-15T12:40:02.962Z,31.16
2018-07-15T12:41:02.952Z,30.47
2018-07-15T12:42:02.961Z,31.26
2018-07-15T12:43:02.920Z,31.65
2018-07-15T12:44:02.913Z,30.76
2018-07-15T12:45:02.899Z,30.17
2018-07-15T12:46:02.887Z,29.88
2018-07-15T12:47:02.898Z,31.56
2018-07-15T12:48:02.875Z,32.24
2018-07-15T12:49:02.862Z,31.35
2018-07-15T12:50:02.843Z,31.17
2018-07-15T12:51:02.842Z,31.88
2018-07-15T12:52:02.849Z,31.70